Decoded Metar for EPSC (SZCZECIN in POLAND) (IATA:SZZ) | Meteo·Mobile Aviation Weather
aviador You're here:

EPSC Decoded Metar

SZCZECIN in POLAND
Report Time2018-10-22 23:00:00
UTC Time2018-10-22 23:19:53
Flight Rules vfr VFR
Wind210° at 04 kt
W.Decomp.*RWY 13: 0.9 kt HW 3.9 kt RCW
W.Rank210° ranks 16
Current wind is below 210° avg. (6.4)
Visibility9999 m
Phenomena:N/A
Clouds:N/A
Expected CloudBase > 800 ft AGL from Temp-Dew spread
CeilingNone
Temp05°C (ISA -10)
Dew Point03°C (87% RH)
AAT2.1°C
QNH1024 hPa
Density Alt-1,467 ft
Elevation10 ft
Report Wrong Elevation
Raw Report
EPSC 222300Z 21004KT CAVOK 05/03 Q1024=

Extra information for EPSC:More info

Metar Taf Metar & Taf Last 4 Metars F.Rules Stats Wind Profile Meteogram Temp Stats Airport Information Weather charts Add Link Nearby VenuesMetar ALERT Operation Metar Decoded Social comments